createdAt,value
2022-11-16T00:00:10.642Z,70.80
2022-11-16T00:02:38.955Z,70.80
2022-11-16T00:05:09.444Z,70.80
2022-11-16T00:07:37.709Z,70.80
2022-11-16T00:10:06.710Z,70.80
2022-11-16T00:12:34.847Z,70.80
2022-11-16T00:15:02.932Z,70.80
2022-11-16T00:17:31.260Z,70.80
2022-11-16T00:19:59.453Z,70.80
2022-11-16T00:22:29.127Z,70.80
2022-11-16T00:24:57.296Z,70.90
2022-11-16T00:27:25.457Z,70.90
2022-11-16T00:29:53.668Z,70.90
2022-11-16T00:32:21.876Z,70.90
2022-11-16T00:34:50.059Z,70.90
2022-11-16T00:37:18.251Z,70.90
2022-11-16T00:39:47.688Z,70.90
2022-11-16T00:42:15.829Z,70.90
2022-11-16T00:44:43.983Z,71.50
2022-11-16T00:47:12.201Z,70.90
2022-11-16T00:49:40.280Z,70.90
2022-11-16T00:52:08.606Z,70.90
2022-11-16T00:54:36.909Z,70.90
2022-11-16T00:57:06.441Z,70.90
2022-11-16T00:59:34.508Z,70.90
2022-11-16T01:02:02.810Z,70.90
2022-11-16T01:04:30.980Z,70.90
2022-11-16T01:06:59.227Z,70.90
2022-11-16T01:09:27.362Z,70.90
2022-11-16T01:12:10.689Z,70.90
2022-11-16T01:14:42.498Z,70.90
2022-11-16T01:17:10.877Z,70.90
2022-11-16T01:19:39.177Z,70.90
2022-11-16T01:22:07.520Z,70.90
2022-11-16T01:24:35.698Z,70.90
2022-11-16T01:27:04.028Z,70.90
2022-11-16T01:29:32.610Z,70.90
2022-11-16T01:32:02.255Z,71.00
2022-11-16T01:34:30.597Z,70.90
2022-11-16T01:36:58.788Z,70.90
2022-11-16T01:39:27.065Z,71.00
2022-11-16T01:41:55.342Z,71.00
2022-11-16T01:45:06.315Z,71.00
2022-11-16T01:47:36.152Z,71.00
2022-11-16T01:50:09.481Z,71.00
2022-11-16T01:52:41.426Z,71.00
2022-11-16T01:55:10.703Z,71.00
2022-11-16T01:57:43.010Z,71.00
2022-11-16T02:00:13.462Z,71.00
2022-11-16T02:02:43.069Z,71.00
2022-11-16T02:05:13.259Z,71.00
2022-11-16T02:08:20.581Z,71.00
2022-11-16T02:11:02.760Z,71.00
2022-11-16T02:13:39.286Z,71.00
2022-11-16T02:16:17.523Z,71.00
2022-11-16T02:18:58.654Z,71.00
2022-11-16T02:21:33.077Z,70.90
2022-11-16T02:24:38.760Z,71.00
2022-11-16T02:27:33.099Z,70.90
2022-11-16T02:30:03.998Z,71.00
2022-11-16T02:32:35.424Z,71.00
2022-11-16T02:35:08.750Z,71.00
2022-11-16T02:37:45.005Z,70.90
2022-11-16T02:40:16.013Z,71.00
2022-11-16T02:42:46.494Z,71.00
2022-11-16T02:45:19.692Z,71.60
2022-11-16T02:47:51.239Z,71.00
2022-11-16T02:50:23.339Z,71.00
2022-11-16T02:52:51.625Z,71.00
2022-11-16T02:55:19.992Z,71.00
2022-11-16T02:57:52.689Z,71.00
2022-11-16T03:00:25.456Z,71.00
2022-11-16T03:03:07.646Z,71.00
2022-11-16T03:05:39.677Z,71.00
2022-11-16T03:08:19.350Z,71.00
2022-11-16T03:11:10.134Z,71.00
2022-11-16T03:13:40.449Z,71.00
2022-11-16T03:16:14.710Z,71.00
2022-11-16T03:18:45.714Z,71.00
2022-11-16T03:21:16.860Z,71.00
2022-11-16T03:23:46.829Z,71.00
2022-11-16T03:26:20.037Z,71.00
2022-11-16T03:28:53.416Z,71.00
2022-11-16T03:31:29.155Z,71.00
2022-11-16T03:34:01.757Z,71.00
2022-11-16T03:36:33.389Z,71.00
2022-11-16T03:39:05.525Z,71.00
2022-11-16T03:41:36.620Z,71.00
2022-11-16T03:44:05.168Z,71.00
2022-11-16T03:46:34.710Z,71.00
2022-11-16T03:49:03.156Z,71.00
2022-11-16T03:51:31.391Z,71.00
2022-11-16T03:53:59.515Z,71.00
2022-11-16T03:56:27.795Z,71.00
2022-11-16T03:58:55.929Z,71.00
2022-11-16T04:01:24.339Z,71.00
2022-11-16T04:03:53.912Z,70.90
2022-11-16T04:06:39.545Z,71.00
2022-11-16T04:09:25.057Z,71.00
2022-11-16T04:12:10.817Z,71.00
2022-11-16T04:14:56.889Z,71.00
2022-11-16T04:17:43.571Z,71.10
2022-11-16T04:20:32.962Z,71.00
2022-11-16T04:23:23.106Z,71.00
2022-11-16T04:25:52.940Z,71.10
2022-11-16T04:28:23.561Z,71.10
2022-11-16T04:31:11.377Z,71.10
2022-11-16T04:33:57.467Z,71.20
2022-11-16T04:36:52.687Z,71.10
2022-11-16T04:39:20.821Z,71.20
2022-11-16T04:42:06.516Z,71.20
2022-11-16T04:44:50.536Z,71.20
2022-11-16T04:47:18.768Z,71.20
2022-11-16T04:49:46.910Z,71.20
2022-11-16T04:52:16.689Z,71.30
2022-11-16T04:54:44.880Z,71.30
2022-11-16T04:57:13.044Z,71.30
2022-11-16T04:59:41.358Z,71.40
2022-11-16T05:02:09.587Z,71.30
2022-11-16T05:04:38.179Z,71.30
2022-11-16T05:07:10.888Z,71.30
2022-11-16T05:09:43.193Z,71.30
2022-11-16T05:12:14.813Z,71.30
2022-11-16T05:14:43.604Z,71.30
2022-11-16T05:17:12.607Z,71.30
2022-11-16T05:19:58.675Z,71.30
2022-11-16T05:22:27.391Z,71.30
2022-11-16T05:24:56.902Z,71.30
2022-11-16T05:27:26.421Z,71.30
2022-11-16T05:29:55.123Z,71.20
2022-11-16T05:32:25.267Z,71.30
2022-11-16T05:34:53.624Z,71.20
2022-11-16T05:37:23.228Z,71.20
2022-11-16T05:39:51.357Z,71.20
2022-11-16T05:42:20.965Z,71.20
2022-11-16T05:44:49.123Z,71.20
2022-11-16T05:47:17.423Z,71.20
2022-11-16T05:49:45.556Z,71.20
2022-11-16T05:52:13.637Z,71.20
2022-11-16T05:54:41.758Z,71.20
2022-11-16T05:57:09.836Z,71.20
2022-11-16T05:59:39.510Z,71.20
2022-11-16T06:02:07.704Z,71.20
2022-11-16T06:04:35.827Z,71.20
2022-11-16T06:07:04.313Z,71.20
2022-11-16T06:09:32.590Z,71.10
2022-11-16T06:12:00.790Z,71.10
2022-11-16T06:14:28.974Z,71.10
2022-11-16T06:16:58.547Z,71.10
2022-11-16T06:19:32.068Z,71.10
2022-11-16T06:22:00.631Z,71.10
2022-11-16T06:24:28.815Z,71.00
2022-11-16T06:26:56.927Z,71.10
2022-11-16T06:29:25.160Z,71.10
2022-11-16T06:31:53.339Z,71.20
2022-11-16T06:34:22.843Z,71.00
2022-11-16T06:36:50.926Z,71.00
2022-11-16T06:39:19.084Z,71.10
2022-11-16T06:41:47.349Z,71.00
2022-11-16T06:44:15.566Z,71.10
2022-11-16T06:46:43.793Z,71.00
2022-11-16T06:49:11.974Z,71.00
2022-11-16T06:51:41.391Z,71.00
2022-11-16T06:54:09.694Z,71.00
2022-11-16T06:56:37.791Z,71.00
2022-11-16T06:59:05.976Z,71.10
2022-11-16T07:01:34.462Z,71.00
2022-11-16T07:04:02.658Z,71.00
2022-11-16T07:06:31.384Z,71.00
2022-11-16T07:09:00.892Z,71.00
2022-11-16T07:11:29.108Z,71.00
2022-11-16T07:13:57.306Z,71.00
2022-11-16T07:16:25.404Z,71.10
2022-11-16T07:18:53.601Z,71.00
2022-11-16T07:21:21.760Z,71.00
2022-11-16T07:23:49.878Z,71.00
2022-11-16T07:26:19.485Z,71.10
2022-11-16T07:28:48.673Z,71.60
2022-11-16T07:31:17.666Z,71.00
2022-11-16T07:33:45.749Z,71.00
2022-11-16T07:36:15.839Z,71.00
2022-11-16T07:38:44.001Z,71.00
2022-11-16T07:41:13.848Z,71.00
2022-11-16T07:43:47.192Z,71.00
2022-11-16T07:49:11.278Z,70.90
2022-11-16T07:51:39.632Z,70.90
2022-11-16T07:54:08.299Z,71.00
2022-11-16T07:56:36.443Z,70.90
2022-11-16T07:59:06.744Z,71.00
2022-11-16T08:01:35.986Z,70.90
2022-11-16T08:04:04.205Z,70.90
2022-11-16T08:06:33.267Z,70.90
2022-11-16T08:09:01.356Z,70.90
2022-11-16T08:11:29.456Z,70.90
2022-11-16T08:13:58.164Z,70.90
2022-11-16T08:16:27.640Z,71.00
2022-11-16T08:18:55.877Z,71.00
2022-11-16T08:21:24.035Z,70.90
2022-11-16T08:23:57.832Z,71.00
2022-11-16T08:26:27.172Z,71.00
2022-11-16T08:28:57.154Z,71.00
2022-11-16T08:31:28.546Z,71.00
2022-11-16T08:33:57.107Z,70.90
2022-11-16T08:36:25.382Z,70.90
2022-11-16T08:38:54.294Z,71.00
2022-11-16T08:41:23.215Z,70.90
2022-11-16T08:43:53.353Z,70.90
2022-11-16T08:46:21.967Z,70.90
2022-11-16T08:48:55.855Z,71.00
2022-11-16T08:51:24.316Z,70.90
2022-11-16T08:53:57.035Z,71.00
2022-11-16T08:56:27.381Z,70.90
2022-11-16T08:58:58.931Z,70.90
2022-11-16T09:01:29.192Z,70.90
2022-11-16T09:03:58.914Z,70.90
2022-11-16T09:06:28.589Z,70.90
2022-11-16T09:08:57.557Z,70.90
2022-11-16T09:11:26.571Z,70.90
2022-11-16T09:13:55.715Z,70.90
2022-11-16T09:16:24.975Z,70.90
2022-11-16T09:18:53.211Z,70.90
2022-11-16T09:21:24.545Z,71.50
2022-11-16T09:23:54.391Z,70.90
2022-11-16T09:26:23.608Z,70.90
2022-11-16T09:28:56.800Z,70.90
2022-11-16T09:31:27.401Z,70.90
2022-11-16T09:33:58.176Z,70.90
2022-11-16T09:36:28.873Z,70.90
2022-11-16T09:41:56.635Z,70.90
2022-11-16T09:44:54.720Z,70.90
2022-11-16T09:47:25.956Z,70.90
2022-11-16T09:50:01.622Z,70.90
2022-11-16T09:52:37.811Z,70.90
2022-11-16T09:55:24.054Z,70.90
2022-11-16T09:57:54.856Z,70.90
2022-11-16T10:00:24.835Z,70.90
2022-11-16T10:03:03.768Z,70.90
2022-11-16T10:05:37.670Z,70.90
2022-11-16T10:08:14.380Z,70.90
2022-11-16T10:10:50.503Z,71.00
2022-11-16T10:13:35.295Z,71.60
2022-11-16T10:16:12.614Z,70.90
2022-11-16T10:18:52.359Z,70.90
2022-11-16T10:21:33.246Z,71.00
2022-11-16T10:24:21.837Z,71.00
2022-11-16T10:26:59.275Z,71.10
2022-11-16T10:29:40.376Z,71.10
2022-11-16T10:32:16.529Z,71.10
2022-11-16T10:34:51.920Z,71.10
2022-11-16T10:37:21.333Z,71.10
2022-11-16T10:39:54.169Z,71.10
2022-11-16T10:42:29.801Z,71.10
2022-11-16T10:45:03.741Z,71.10
2022-11-16T10:47:41.809Z,71.20
2022-11-16T10:50:32.958Z,71.20
2022-11-16T10:53:01.072Z,71.20
2022-11-16T10:55:30.762Z,71.20
2022-11-16T10:58:01.225Z,71.20
2022-11-16T11:00:38.111Z,71.20
2022-11-16T11:03:06.304Z,71.20
2022-11-16T11:05:36.177Z,71.20
2022-11-16T11:08:06.077Z,71.20
2022-11-16T11:10:37.312Z,71.20
2022-11-16T11:13:26.300Z,71.20
2022-11-16T11:16:16.226Z,71.20
2022-11-16T11:18:44.408Z,71.20
2022-11-16T11:21:19.274Z,71.20
2022-11-16T11:23:50.858Z,71.20
2022-11-16T11:26:36.882Z,71.20
2022-11-16T11:29:16.837Z,71.10
2022-11-16T11:31:47.294Z,71.20
2022-11-16T11:34:18.804Z,71.20
2022-11-16T11:36:50.423Z,71.20
2022-11-16T11:39:33.779Z,71.10
2022-11-16T11:42:06.703Z,71.10
2022-11-16T11:44:43.710Z,71.10
2022-11-16T11:50:33.313Z,71.10
2022-11-16T11:53:07.046Z,71.10
2022-11-16T11:55:35.813Z,71.10
2022-11-16T11:58:07.230Z,71.10
2022-11-16T12:00:47.079Z,71.00
2022-11-16T12:03:54.138Z,71.00
2022-11-16T12:06:32.575Z,71.10
2022-11-16T12:09:23.908Z,71.10
2022-11-16T12:12:08.177Z,71.00
2022-11-16T12:15:08.696Z,71.10
2022-11-16T12:17:46.233Z,71.00
2022-11-16T12:20:26.177Z,71.00
2022-11-16T12:23:19.358Z,71.10
2022-11-16T12:25:52.995Z,71.00
2022-11-16T12:28:33.762Z,71.00
2022-11-16T12:31:20.624Z,71.10
2022-11-16T12:33:55.322Z,71.00
2022-11-16T12:36:34.672Z,71.00
2022-11-16T12:39:14.294Z,71.00
2022-11-16T12:42:11.111Z,71.00
2022-11-16T12:44:56.902Z,71.00
2022-11-16T12:47:34.540Z,71.00
2022-11-16T12:50:17.118Z,71.00
2022-11-16T12:52:59.468Z,71.00
2022-11-16T12:55:33.614Z,71.00
2022-11-16T12:58:13.654Z,71.00
2022-11-16T13:00:54.357Z,71.00
2022-11-16T13:03:30.547Z,71.00
2022-11-16T13:06:02.871Z,71.00
2022-11-16T13:08:48.411Z,71.00
2022-11-16T13:11:21.966Z,71.00
2022-11-16T13:13:53.961Z,71.00
2022-11-16T13:16:23.799Z,71.00
2022-11-16T13:18:55.074Z,71.00
2022-11-16T13:21:38.907Z,71.00
2022-11-16T13:24:25.464Z,71.00
2022-11-16T13:27:05.469Z,71.00
2022-11-16T13:29:38.867Z,71.00
2022-11-16T13:32:12.296Z,71.00
2022-11-16T13:34:42.623Z,71.60
2022-11-16T13:37:45.051Z,71.00
2022-11-16T13:40:23.418Z,71.00
2022-11-16T13:43:15.407Z,71.00
2022-11-16T13:45:52.342Z,71.00
2022-11-16T13:48:22.662Z,71.00
2022-11-16T13:50:56.637Z,71.10
2022-11-16T13:56:18.435Z,71.00
2022-11-16T13:58:51.598Z,71.00
2022-11-16T14:01:20.565Z,71.00
2022-11-16T14:03:51.612Z,71.00
2022-11-16T14:06:59.697Z,71.00
2022-11-16T14:09:48.243Z,71.00
2022-11-16T14:12:56.312Z,71.00
2022-11-16T14:15:28.403Z,71.00
2022-11-16T14:18:00.056Z,71.00
2022-11-16T14:21:00.938Z,71.00
2022-11-16T14:23:47.555Z,71.00
2022-11-16T14:26:23.378Z,71.00
2022-11-16T14:29:16.721Z,71.00
2022-11-16T14:31:52.263Z,71.00
2022-11-16T14:34:23.352Z,71.00
2022-11-16T14:36:51.705Z,71.00
2022-11-16T14:39:32.928Z,71.00
2022-11-16T14:42:03.934Z,71.00
2022-11-16T14:44:33.648Z,71.00
2022-11-16T14:47:03.623Z,71.10
2022-11-16T14:49:34.634Z,71.00
2022-11-16T14:52:03.925Z,71.00
2022-11-16T14:54:39.313Z,71.00
2022-11-16T14:57:12.818Z,71.00
2022-11-16T14:59:41.638Z,71.00
2022-11-16T15:02:20.197Z,71.00
2022-11-16T15:04:49.081Z,71.00
2022-11-16T15:07:18.782Z,71.00
2022-11-16T15:09:51.871Z,71.00
2022-11-16T15:12:40.960Z,71.00
2022-11-16T15:15:14.774Z,71.00
2022-11-16T15:17:45.507Z,71.10
2022-11-16T15:20:20.325Z,71.10
2022-11-16T15:22:51.730Z,71.10
2022-11-16T15:25:31.176Z,71.10
2022-11-16T15:28:01.024Z,71.10
2022-11-16T15:30:31.233Z,71.20
2022-11-16T15:32:59.698Z,71.20
2022-11-16T15:35:31.250Z,71.20
2022-11-16T15:38:07.347Z,71.30
2022-11-16T15:40:37.030Z,71.30
2022-11-16T15:43:07.139Z,71.30
2022-11-16T15:45:36.056Z,71.30
2022-11-16T15:48:05.152Z,71.30
2022-11-16T15:50:33.445Z,71.30
2022-11-16T15:53:01.583Z,71.40
2022-11-16T15:55:38.731Z,71.30
2022-11-16T15:58:22.483Z,71.30
2022-11-16T16:00:50.911Z,71.30
2022-11-16T16:03:23.054Z,71.30
2022-11-16T16:05:51.996Z,71.40
2022-11-16T16:08:30.064Z,71.30
2022-11-16T16:11:11.724Z,71.30
2022-11-16T16:13:42.721Z,71.30
2022-11-16T16:16:20.997Z,71.30
2022-11-16T16:18:49.936Z,71.30
2022-11-16T16:21:19.012Z,71.30
2022-11-16T16:23:48.232Z,71.30
2022-11-16T16:26:18.370Z,71.30
2022-11-16T16:28:46.810Z,71.30
2022-11-16T16:31:15.636Z,71.30
2022-11-16T16:33:43.861Z,71.30
2022-11-16T16:36:13.682Z,71.20
2022-11-16T16:38:41.999Z,71.30
2022-11-16T16:41:23.984Z,71.30
2022-11-16T16:43:52.925Z,71.30
2022-11-16T16:46:21.775Z,71.30
2022-11-16T16:48:49.989Z,71.30
2022-11-16T16:51:18.235Z,71.30
2022-11-16T16:53:46.357Z,71.30
2022-11-16T16:56:16.236Z,71.30
2022-11-16T16:58:45.898Z,71.30
2022-11-16T17:01:14.422Z,71.30
2022-11-16T17:03:42.660Z,71.30
2022-11-16T17:06:10.857Z,71.20
2022-11-16T17:08:39.383Z,71.20
2022-11-16T17:11:07.617Z,71.30
2022-11-16T17:13:36.332Z,71.30
2022-11-16T17:16:07.603Z,71.20
2022-11-16T17:18:35.766Z,71.20
2022-11-16T17:21:07.444Z,71.20
2022-11-16T17:23:36.753Z,71.20
2022-11-16T17:26:06.146Z,71.20
2022-11-16T17:28:34.686Z,71.30
2022-11-16T17:31:03.498Z,71.20
2022-11-16T17:33:35.986Z,71.20
2022-11-16T17:36:04.738Z,71.20
2022-11-16T17:38:32.979Z,71.20
2022-11-16T17:41:05.686Z,71.20
2022-11-16T17:43:34.330Z,71.20
2022-11-16T17:46:05.139Z,71.20
2022-11-16T17:48:33.497Z,71.20
2022-11-16T17:51:03.474Z,71.20
2022-11-16T17:53:33.013Z,71.10
2022-11-16T17:56:01.319Z,71.10
2022-11-16T17:58:29.743Z,71.10
2022-11-16T18:00:58.296Z,71.20
2022-11-16T18:03:28.368Z,71.10
2022-11-16T18:06:04.936Z,71.20
2022-11-16T18:08:33.736Z,71.10
2022-11-16T18:11:06.350Z,71.20
2022-11-16T18:13:35.142Z,71.10
2022-11-16T18:16:05.310Z,71.20
2022-11-16T18:18:34.260Z,71.20
2022-11-16T18:21:03.800Z,71.20
2022-11-16T18:23:32.474Z,71.20
2022-11-16T18:26:03.101Z,71.20
2022-11-16T18:28:31.314Z,71.20
2022-11-16T18:31:04.461Z,71.20
2022-11-16T18:33:33.174Z,71.20
2022-11-16T18:36:03.143Z,71.20
2022-11-16T18:38:31.433Z,71.20
2022-11-16T18:41:07.493Z,71.20
2022-11-16T18:43:36.437Z,71.20
2022-11-16T18:46:05.299Z,71.20
2022-11-16T18:48:33.550Z,71.20
2022-11-16T18:51:04.704Z,71.20
2022-11-16T18:53:34.661Z,71.20
2022-11-16T18:56:03.306Z,71.20
2022-11-16T19:01:20.962Z,71.20
2022-11-16T19:03:49.330Z,71.20
2022-11-16T19:06:19.493Z,71.20
2022-11-16T19:08:54.983Z,71.20
2022-11-16T19:11:24.730Z,71.20
2022-11-16T19:13:54.814Z,71.20
2022-11-16T19:16:23.747Z,71.50
2022-11-16T19:18:51.855Z,71.20
2022-11-16T19:21:22.048Z,71.20
2022-11-16T19:23:52.083Z,71.20
2022-11-16T19:26:22.449Z,71.20
2022-11-16T19:28:51.759Z,71.30
2022-11-16T19:31:22.299Z,71.20
2022-11-16T19:33:55.068Z,71.20
2022-11-16T19:36:25.222Z,71.20
2022-11-16T19:38:53.732Z,71.20
2022-11-16T19:41:22.802Z,71.20
2022-11-16T19:43:52.732Z,71.20
2022-11-16T19:46:21.943Z,71.20
2022-11-16T19:48:50.399Z,71.20
2022-11-16T19:51:21.222Z,71.20
2022-11-16T19:53:51.216Z,71.20
2022-11-16T19:56:20.591Z,71.30
2022-11-16T19:58:49.352Z,71.20
2022-11-16T20:01:19.319Z,71.20
2022-11-16T20:03:48.794Z,71.30
2022-11-16T20:06:18.667Z,71.20
2022-11-16T20:08:50.571Z,71.20
2022-11-16T20:11:20.685Z,71.20
2022-11-16T20:13:49.177Z,71.30
2022-11-16T20:16:18.656Z,71.20
2022-11-16T20:18:47.756Z,71.20
2022-11-16T20:21:20.332Z,71.20
2022-11-16T20:23:50.529Z,71.30
2022-11-16T20:26:20.039Z,71.30
2022-11-16T20:28:50.967Z,71.30
2022-11-16T20:31:20.934Z,71.20
2022-11-16T20:33:51.898Z,71.30
2022-11-16T20:36:20.253Z,71.20
2022-11-16T20:38:48.369Z,71.20
2022-11-16T20:41:19.215Z,71.20
2022-11-16T20:43:48.664Z,71.20
2022-11-16T20:46:18.048Z,71.20
2022-11-16T20:48:46.513Z,71.20
2022-11-16T20:51:17.077Z,71.20
2022-11-16T20:53:45.843Z,71.20
2022-11-16T20:56:14.546Z,71.30
2022-11-16T20:58:44.349Z,71.30
2022-11-16T21:01:15.872Z,71.20
2022-11-16T21:03:45.090Z,71.20
2022-11-16T21:06:13.772Z,71.30
2022-11-16T21:08:42.807Z,71.30
2022-11-16T21:11:12.327Z,71.20
2022-11-16T21:13:58.048Z,71.20
2022-11-16T21:16:27.709Z,71.20
2022-11-16T21:18:56.466Z,71.20
2022-11-16T21:21:25.536Z,71.20
2022-11-16T21:23:54.928Z,71.30
2022-11-16T21:26:25.697Z,71.20
2022-11-16T21:28:54.216Z,70.70
2022-11-16T21:31:25.529Z,71.20
2022-11-16T21:33:55.691Z,71.20
2022-11-16T21:36:25.272Z,71.30
2022-11-16T21:38:54.433Z,71.30
2022-11-16T21:41:23.928Z,71.20
2022-11-16T21:43:52.261Z,71.30
2022-11-16T21:46:22.167Z,71.30
2022-11-16T21:48:51.387Z,71.30
2022-11-16T21:51:24.829Z,71.20
2022-11-16T21:53:53.159Z,71.20
2022-11-16T21:56:22.817Z,71.30
2022-11-16T21:58:52.744Z,71.20
2022-11-16T22:01:21.674Z,71.20
2022-11-16T22:04:10.533Z,71.30
2022-11-16T22:07:00.126Z,71.20
2022-11-16T22:09:28.338Z,71.30
2022-11-16T22:14:38.338Z,71.20
2022-11-16T22:17:08.323Z,71.80
2022-11-16T22:19:36.422Z,71.20
2022-11-16T22:22:05.917Z,71.30
2022-11-16T22:24:34.218Z,71.20
2022-11-16T22:27:02.407Z,71.30
2022-11-16T22:29:31.749Z,71.20
2022-11-16T22:31:59.818Z,71.20
2022-11-16T22:34:27.953Z,71.20
2022-11-16T22:36:55.984Z,71.20
2022-11-16T22:39:25.439Z,71.20
2022-11-16T22:41:54.106Z,71.20
2022-11-16T22:44:22.189Z,71.20
2022-11-16T22:46:52.279Z,71.20
2022-11-16T22:49:20.407Z,71.20
2022-11-16T22:51:48.583Z,71.20
2022-11-16T22:54:16.762Z,71.20
2022-11-16T22:56:47.415Z,71.20
2022-11-16T22:59:15.595Z,71.30
2022-11-16T23:01:43.675Z,71.30
2022-11-16T23:04:11.762Z,71.30
2022-11-16T23:06:39.853Z,71.30
2022-11-16T23:09:07.906Z,71.30
2022-11-16T23:11:53.547Z,71.30
2022-11-16T23:14:54.659Z,71.30
2022-11-16T23:17:22.799Z,71.30
2022-11-16T23:20:10.121Z,71.30
2022-11-16T23:22:58.916Z,71.30
2022-11-16T23:25:44.639Z,71.30
2022-11-16T23:28:15.573Z,71.30
2022-11-16T23:30:45.017Z,71.30
2022-11-16T23:33:13.178Z,71.30
2022-11-16T23:35:41.292Z,71.30
2022-11-16T23:38:09.924Z,71.30
2022-11-16T23:40:40.017Z,71.30
2022-11-16T23:43:28.317Z,71.30
2022-11-16T23:45:57.752Z,71.30
2022-11-16T23:48:26.102Z,71.30
2022-11-16T23:50:54.222Z,71.30
2022-11-16T23:53:22.301Z,71.30
2022-11-16T23:55:50.422Z,71.30
2022-11-16T23:58:18.511Z,71.20
